Huvudsida
METAR-TAF:

METAR-TAF

Flygplatser :

Mfuwe, Zambia

latitud: 13-15-32S, longitud: 031-56-12E, höjd: 573 m

METAR: saknas

Tid: 13:58 (11:58 UTC)

Väderprognos

Denna rapport gjordes för 7 timmar och 58 minuter sedan, klockan 04:00 UTC
Prognos gäller från 18 kl. 06 UTC till 19 kl. 12 UTC
Vind 10 kt från syd
Sikt 10 km eller mer
Få moln på en höjd av 2000 ft
Blir
från 18 kl. 12 UTC till 18 kl. 14 UTC
Vind 10 kt från ost
Spridda moln på en höjd av 4500 ft
Blir
från 18 kl. 16 UTC till 18 kl. 20 UTC
Vind 10 kt från ost/nordost
Sikt 10 km eller mer
Inga moln under 1 500 m eller inga cumulonimbus

TAF: FLMF 180400Z 1806/1912 19010KT 9999 FEW020 BECMG 1812/1814 10010KT SCT045 BECMG 1816/1820 07010KT CAVOK

Aktuella väderrapporter och prognoser från 4000 flygplatser (METAR- och TAF-rapporter).

De tillgängliga stationerna syns som gula och röda prickar på kartan.

För musen över prickarna för att se namnen på stationerna.

Klicka sedan för att få väderrapporter och prognoser.

För att ändra kartan: Klicka på de gröna knapparna med ett svart kors på för att zooma in; den gröna knappen med ett streck på för att zooma ut; eller på de gröna pilarna för angränsande kartor.


METAR-TAF: